Time;durP1;ratioP1;P1;durP2;ratioP2;P2;SDS_P1;SDS_P2;PMS_P1;PMS_P2;Temp;Humidity;BMP_temperature;BMP_pressure;BME280_temperature;BME280_humidity;BME280_pressure;Samples;Min_cycle;Max_cycle;Signal;HPM_P1;HPM_P2
2021/07/01 00:01:57;;;;;;;2.25;1.00;;;23.40;45.20;;;;;;6300747;28;20485;-73
2021/07/01 00:04:59;;;;;;;2.83;1.55;;;23.40;45.30;;;;;;6323839;28;20185;-74
2021/07/01 00:08:00;;;;;;;2.47;1.08;;;23.40;45.30;;;;;;6326087;28;20107;-74
2021/07/01 00:11:01;;;;;;;2.20;0.95;;;23.40;45.30;;;;;;6325837;28;20465;-74
2021/07/01 00:14:03;;;;;;;0.70;0.70;;;23.40;45.50;;;;;;6307921;28;20032;-74
2021/07/01 00:17:05;;;;;;;0.60;0.60;;;23.40;45.60;;;;;;6324552;28;20070;-74
2021/07/01 00:20:07;;;;;;;0.73;0.60;;;23.40;45.60;;;;;;6302454;28;20051;-73
2021/07/01 00:23:09;;;;;;;4.78;0.90;;;23.40;45.80;;;;;;6298739;28;20040;-73
2021/07/01 00:26:10;;;;;;;3.05;1.00;;;23.30;45.70;;;;;;6299355;28;20032;-73
2021/07/01 00:29:11;;;;;;;4.20;0.80;;;23.30;45.80;;;;;;6315665;28;20032;-73
2021/07/01 00:32:12;;;;;;;0.73;0.60;;;23.30;45.80;;;;;;6318672;28;20488;-73
2021/07/01 00:35:14;;;;;;;1.00;0.63;;;23.20;45.80;;;;;;6324466;28;20024;-74
2021/07/01 00:38:15;;;;;;;1.13;0.88;;;23.30;46.50;;;;;;6317615;28;20078;-75
2021/07/01 00:41:17;;;;;;;1.25;0.60;;;23.20;45.90;;;;;;6297584;28;20049;-74
2021/07/01 00:44:18;;;;;;;2.38;0.60;;;23.20;45.90;;;;;;6299414;28;20405;-74
2021/07/01 00:47:21;;;;;;;1.67;0.82;;;23.20;45.90;;;;;;6298843;28;20107;-75
2021/07/01 00:50:24;;;;;;;1.33;1.00;;;23.30;46.10;;;;;;6299979;28;20047;-74
2021/07/01 00:53:27;;;;;;;1.60;0.73;;;23.20;46.00;;;;;;6288403;28;20053;-73
2021/07/01 00:56:28;;;;;;;2.22;0.80;;;23.20;46.00;;;;;;6298422;28;20033;-73
2021/07/01 00:59:30;;;;;;;1.15;0.80;;;23.20;46.20;;;;;;6298995;28;20063;-73
2021/07/01 01:02:31;;;;;;;5.40;1.17;;;23.10;46.20;;;;;;6301842;28;20092;-73
2021/07/01 01:05:33;;;;;;;5.30;1.45;;;23.10;46.20;;;;;;6323155;28;20040;-74
2021/07/01 01:08:34;;;;;;;1.88;0.82;;;23.10;46.40;;;;;;6324333;28;20043;-74
2021/07/01 01:11:37;;;;;;;1.35;0.88;;;23.00;46.60;;;;;;6323145;28;20503;-73
2021/07/01 01:14:45;;;;;;;2.30;0.80;;;23.00;47.00;;;;;;6323825;28;20036;-76
2021/07/01 01:17:48;;;;;;;2.85;0.88;;;22.90;47.10;;;;;;6323634;28;20046;-74
2021/07/01 01:20:53;;;;;;;2.20;0.90;;;22.90;47.40;;;;;;6313883;28;20394;-73
2021/07/01 01:23:55;;;;;;;0.73;0.73;;;22.80;47.70;;;;;;6296899;28;20060;-73
2021/07/01 01:26:56;;;;;;;2.00;0.90;;;22.70;48.10;;;;;;6298529;28;20071;-73
2021/07/01 01:29:58;;;;;;;1.58;0.80;;;22.60;48.20;;;;;;6297018;28;20481;-74
2021/07/01 01:32:59;;;;;;;3.25;0.70;;;22.50;49.00;;;;;;6306068;28;20050;-73
2021/07/01 01:36:00;;;;;;;6.55;0.70;;;22.40;48.50;;;;;;6323106;28;20040;-73
2021/07/01 01:39:03;;;;;;;1.92;0.90;;;22.40;48.60;;;;;;6300969;28;20128;-74
2021/07/01 01:42:07;;;;;;;3.53;0.70;;;22.40;48.70;;;;;;6297139;28;20065;-74
2021/07/01 01:45:10;;;;;;;1.73;0.80;;;22.30;48.80;;;;;;6264956;28;20033;-74
2021/07/01 01:48:12;;;;;;;3.88;0.77;;;22.30;48.90;;;;;;6297809;28;20047;-73
2021/07/01 01:51:14;;;;;;;1.77;0.90;;;22.20;49.00;;;;;;6296646;28;20040;-73
2021/07/01 01:54:15;;;;;;;0.95;0.60;;;22.20;49.20;;;;;;6295505;28;20032;-73
2021/07/01 01:57:17;;;;;;;4.32;0.80;;;22.10;49.20;;;;;;6311696;28;20372;-74
2021/07/01 02:00:37;;;;;;;6.63;0.80;;;22.10;49.40;;;;;;6296352;28;20119;-74
2021/07/01 02:03:38;;;;;;;1.15;0.80;;;22.00;49.70;;;;;;6309024;28;20032;-73
2021/07/01 02:06:59;;;;;;;0.65;0.57;;;21.90;49.90;;;;;;6312958;28;20029;-75
2021/07/01 02:10:24;;;;;;;0.63;0.50;;;21.80;50.00;;;;;;6291946;28;20465;-74
2021/07/01 02:13:25;;;;;;;1.00;0.75;;;21.80;50.20;;;;;;6283849;28;20032;-74
2021/07/01 02:21:07;;;;;;;3.17;1.02;;;21.60;50.60;;;;;;6297541;28;20040;-73
2021/07/01 02:24:09;;;;;;;1.65;0.70;;;21.50;50.60;;;;;;6279453;28;20028;-74
2021/07/01 02:27:11;;;;;;;7.13;0.88;;;21.50;50.60;;;;;;6288491;28;20029;-74
2021/07/01 02:30:16;;;;;;;0.50;0.50;;;21.50;50.50;;;;;;6296749;28;20032;-74
2021/07/01 02:33:18;;;;;;;2.63;0.75;;;21.50;50.40;;;;;;6308726;28;20118;-74
2021/07/01 02:36:19;;;;;;;0.93;0.75;;;21.50;50.30;;;;;;6305047;28;20350;-74
2021/07/01 02:39:39;;;;;;;0.95;0.70;;;21.50;50.20;;;;;;6305303;28;20036;-73
2021/07/01 02:42:42;;;;;;;1.48;1.10;;;21.50;50.20;;;;;;6279386;28;20029;-74
2021/07/01 02:45:43;;;;;;;2.90;0.90;;;21.50;50.30;;;;;;6297409;28;20040;-74
2021/07/01 02:48:49;;;;;;;4.05;0.90;;;21.50;50.40;;;;;;6296734;28;20044;-74
2021/07/01 02:51:54;;;;;;;1.33;0.80;;;21.50;51.10;;;;;;6313588;28;20110;-74
2021/07/01 02:54:55;;;;;;;1.90;1.08;;;21.40;50.50;;;;;;6280315;28;20032;-74
2021/07/01 02:57:57;;;;;;;5.45;1.20;;;21.40;50.70;;;;;;6263291;28;20056;-74
2021/07/01 03:00:59;;;;;;;2.63;1.15;;;21.50;50.70;;;;;;6293876;28;20041;-74
2021/07/01 03:04:01;;;;;;;2.03;0.90;;;21.50;50.70;;;;;;6301577;28;20453;-73
2021/07/01 03:07:02;;;;;;;4.53;1.00;;;21.60;50.60;;;;;;6310427;28;20131;-75
2021/07/01 03:10:05;;;;;;;5.47;1.13;;;21.60;50.40;;;;;;6329125;28;20048;-74
2021/07/01 03:13:15;;;;;;;0.68;0.68;;;21.60;50.20;;;;;;6312326;28;20036;-75
2021/07/01 03:16:19;;;;;;;1.02;0.70;;;21.60;50.10;;;;;;6329905;28;20040;-75
2021/07/01 03:19:21;;;;;;;1.85;0.98;;;21.50;50.60;;;;;;6327863;28;20040;-73
2021/07/01 03:22:41;;;;;;;1.30;0.68;;;21.50;50.00;;;;;;6310560;28;20033;-75
2021/07/01 03:25:42;;;;;;;2.35;1.10;;;21.40;50.00;;;;;;6325143;28;20025;-74
2021/07/01 03:28:44;;;;;;;2.60;0.90;;;21.40;50.10;;;;;;6304036;28;20039;-74
2021/07/01 03:31:46;;;;;;;0.98;0.80;;;21.40;50.10;;;;;;6317865;28;20033;-74
2021/07/01 03:34:48;;;;;;;4.15;1.48;;;21.40;50.10;;;;;;6322486;28;20048;-74
2021/07/01 03:37:54;;;;;;;1.13;0.90;;;21.40;50.10;;;;;;6322121;28;20040;-74
2021/07/01 03:41:21;;;;;;;3.20;1.08;;;21.40;50.20;;;;;;6289966;28;20033;-74
2021/07/01 03:44:22;;;;;;;3.08;1.20;;;21.40;50.20;;;;;;6282914;28;20033;-73
2021/07/01 03:47:24;;;;;;;6.63;1.02;;;21.30;50.40;;;;;;6300551;28;20131;-73
2021/07/01 03:50:25;;;;;;;5.80;1.27;;;21.30;50.60;;;;;;6283460;28;20123;-73
2021/07/01 03:53:52;;;;;;;3.28;1.00;;;21.30;50.80;;;;;;6293619;28;20052;-73
2021/07/01 03:56:54;;;;;;;1.35;1.10;;;21.30;51.00;;;;;;6279380;28;20124;-73
2021/07/01 04:00:08;;;;;;;3.17;1.10;;;21.30;51.10;;;;;;6295962;28;20056;-73
2021/07/01 04:03:25;;;;;;;1.08;0.98;;;21.30;51.30;;;;;;6306555;28;20471;-74
2021/07/01 04:06:38;;;;;;;0.95;0.75;;;21.30;51.40;;;;;;6291717;28;20409;-74
2021/07/01 04:09:40;;;;;;;1.20;0.90;;;21.30;51.40;;;;;;6320681;28;20353;-74
2021/07/01 04:13:04;;;;;;;4.85;1.55;;;21.30;51.40;;;;;;6269948;28;20462;-73
2021/07/01 04:16:11;;;;;;;2.83;1.25;;;21.30;51.40;;;;;;6270756;28;20382;-73
2021/07/01 04:19:31;;;;;;;1.33;0.98;;;21.40;51.40;;;;;;6268701;28;20506;-74
2021/07/01 04:22:55;;;;;;;1.20;0.95;;;21.40;51.30;;;;;;6138805;29;20457;-74
2021/07/01 04:26:14;;;;;;;3.17;0.80;;;21.50;51.30;;;;;;6109091;29;20405;-74
2021/07/01 04:29:18;;;;;;;4.22;1.10;;;21.50;51.10;;;;;;6122068;28;20068;-74
2021/07/01 04:32:21;;;;;;;5.80;0.90;;;21.60;51.00;;;;;;6109789;29;20099;-74
2021/07/01 04:35:25;;;;;;;3.65;1.02;;;21.70;51.10;;;;;;6123517;29;20046;-74
2021/07/01 04:38:28;;;;;;;2.35;1.15;;;21.70;50.90;;;;;;6094366;29;20119;-73
2021/07/01 04:41:29;;;;;;;1.30;1.00;;;21.80;50.90;;;;;;6123442;28;20038;-73
2021/07/01 04:44:31;;;;;;;1.88;1.08;;;21.80;50.80;;;;;;6123374;28;20032;-72
2021/07/01 04:47:36;;;;;;;1.67;1.25;;;21.90;50.70;;;;;;6139319;28;20426;-73
2021/07/01 04:50:38;;;;;;;1.95;1.00;;;21.90;50.60;;;;;;6146095;28;20457;-73
2021/07/01 04:54:00;;;;;;;1.30;1.00;;;22.00;50.70;;;;;;6180053;28;20467;-74
2021/07/01 04:57:20;;;;;;;1.45;0.80;;;22.00;50.70;;;;;;6180789;28;20035;-75
2021/07/01 05:00:21;;;;;;;1.27;1.00;;;22.00;50.70;;;;;;6258849;28;20445;-75
2021/07/01 05:03:43;;;;;;;1.98;1.30;;;22.00;50.70;;;;;;6244510;28;20040;-74
2021/07/01 05:06:44;;;;;;;1.83;1.00;;;22.10;50.50;;;;;;6242691;28;20113;-73
2021/07/01 05:09:46;;;;;;;1.70;1.30;;;22.20;50.40;;;;;;6241182;28;20120;-73
2021/07/01 05:13:07;;;;;;;2.55;1.08;;;22.20;50.30;;;;;;6241697;28;20093;-74
2021/07/01 05:16:08;;;;;;;3.75;1.20;;;22.20;50.10;;;;;;6226986;28;20043;-74
2021/07/01 05:19:10;;;;;;;5.43;3.50;;;22.10;49.90;;;;;;6227391;28;20115;-73
2021/07/01 05:22:30;;;;;;;3.78;1.15;;;22.00;49.90;;;;;;6224245;28;20041;-73
2021/07/01 05:26:10;;;;;;;2.60;1.20;;;21.90;49.90;;;;;;6143260;28;20031;-73
2021/07/01 05:29:29;;;;;;;2.05;0.98;;;21.90;49.90;;;;;;6144365;29;20460;-74
2021/07/01 05:32:56;;;;;;;1.40;1.10;;;21.80;49.90;;;;;;6130650;28;20047;-75
2021/07/01 05:36:01;;;;;;;4.90;1.00;;;21.80;50.00;;;;;;6145355;29;20381;-74
2021/07/01 05:39:04;;;;;;;1.63;1.10;;;21.80;50.10;;;;;;6145142;28;20380;-74
2021/07/01 05:42:08;;;;;;;1.83;1.00;;;21.80;50.10;;;;;;6152348;28;20125;-72
2021/07/01 05:45:11;;;;;;;1.92;1.08;;;21.70;50.00;;;;;;6188818;28;20077;-75
2021/07/01 05:48:13;;;;;;;2.13;1.30;;;21.70;50.00;;;;;;6175980;28;20045;-73
2021/07/01 05:51:15;;;;;;;5.47;1.30;;;21.70;50.00;;;;;;6168729;28;20050;-73
2021/07/01 05:54:28;;;;;;;4.97;1.27;;;21.80;50.10;;;;;;6191759;28;20124;-73
2021/07/01 05:57:30;;;;;;;1.92;1.05;;;21.90;50.00;;;;;;6221784;28;20060;-74
2021/07/01 06:00:31;;;;;;;4.85;1.58;;;21.90;49.80;;;;;;6291079;28;20098;-73
2021/07/01 06:03:32;;;;;;;4.63;1.58;;;22.00;49.70;;;;;;6301078;28;20477;-73
2021/07/01 06:06:54;;;;;;;4.35;1.55;;;22.00;49.70;;;;;;6316123;28;20452;-73
2021/07/01 06:10:06;;;;;;;1.92;1.33;;;22.10;49.60;;;;;;6316829;28;20040;-73
2021/07/01 06:13:09;;;;;;;2.05;1.40;;;22.20;49.50;;;;;;6282559;28;20043;-74
2021/07/01 06:16:15;;;;;;;2.05;1.30;;;22.20;49.30;;;;;;6293042;28;20359;-74
2021/07/01 06:19:17;;;;;;;4.22;1.40;;;22.30;49.10;;;;;;6292898;28;20024;-74
2021/07/01 06:22:21;;;;;;;3.55;1.60;;;22.40;49.00;;;;;;6271601;28;20486;-74
2021/07/01 06:25:23;;;;;;;4.22;1.30;;;22.40;49.00;;;;;;6290346;28;20040;-73
2021/07/01 06:28:28;;;;;;;2.40;1.35;;;22.40;49.20;;;;;;6282538;28;20075;-74
2021/07/01 06:31:29;;;;;;;3.78;1.63;;;22.30;49.30;;;;;;6268601;28;20055;-73
2021/07/01 06:34:30;;;;;;;9.32;1.75;;;22.30;49.40;;;;;;6276007;28;20064;-74
2021/07/01 06:37:39;;;;;;;2.20;1.60;;;22.30;49.60;;;;;;6253473;28;20037;-73
2021/07/01 06:41:01;;;;;;;2.80;1.70;;;22.30;49.70;;;;;;6273710;28;20037;-75
2021/07/01 06:44:22;;;;;;;8.65;1.65;;;22.30;50.20;;;;;;6297125;28;20438;-74
2021/07/01 06:47:56;;;;;;;4.53;2.28;;;22.50;49.50;;;;;;6298732;28;20036;-74
2021/07/01 06:51:16;;;;;;;5.30;1.85;;;22.60;49.30;;;;;;6294725;28;20060;-74
2021/07/01 06:54:37;;;;;;;6.07;1.67;;;22.70;49.10;;;;;;6309923;28;20036;-74
2021/07/01 06:57:54;;;;;;;5.15;1.83;;;22.80;48.90;;;;;;6296932;28;20033;-73
2021/07/01 07:00:57;;;;;;;23.40;2.60;;;22.90;48.80;;;;;;6295377;28;20121;-74
2021/07/01 07:04:00;;;;;;;4.63;1.30;;;22.90;48.80;;;;;;6296973;28;20044;-74
2021/07/01 07:07:04;;;;;;;3.63;1.45;;;23.00;48.80;;;;;;6296256;28;20036;-74
2021/07/01 07:10:08;;;;;;;2.85;1.30;;;23.00;48.70;;;;;;6296913;28;20052;-74
2021/07/01 07:13:11;;;;;;;4.45;1.20;;;23.10;48.70;;;;;;6313791;28;20028;-74
2021/07/01 07:16:14;;;;;;;2.55;1.23;;;23.30;48.40;;;;;;6296221;28;20047;-74
2021/07/01 07:19:17;;;;;;;2.17;1.30;;;23.70;47.70;;;;;;6297953;28;20417;-74
2021/07/01 07:22:20;;;;;;;1.63;1.50;;;24.20;46.60;;;;;;6295537;28;20044;-73
2021/07/01 07:25:21;;;;;;;4.05;1.63;;;24.60;45.90;;;;;;6314420;28;20438;-75
2021/07/01 07:28:25;;;;;;;2.92;1.45;;;24.70;45.70;;;;;;6296765;28;20044;-75
2021/07/01 07:31:31;;;;;;;2.88;1.42;;;24.70;45.80;;;;;;6297027;28;20029;-75
2021/07/01 07:34:33;;;;;;;7.43;1.63;;;24.70;46.00;;;;;;6312125;28;20365;-75
2021/07/01 07:37:35;;;;;;;2.85;1.30;;;24.60;46.30;;;;;;6298084;28;20040;-74
2021/07/01 07:40:40;;;;;;;3.92;1.25;;;24.50;46.70;;;;;;6298114;28;20040;-74
2021/07/01 07:43:42;;;;;;;7.28;1.90;;;24.60;46.70;;;;;;6297633;28;20032;-73
2021/07/01 07:46:44;;;;;;;11.82;1.40;;;24.60;46.60;;;;;;6274841;28;20151;-74
2021/07/01 07:49:45;;;;;;;2.92;1.35;;;24.70;46.50;;;;;;6297752;28;20037;-74
2021/07/01 07:52:51;;;;;;;2.63;1.20;;;24.70;46.50;;;;;;6298412;28;20036;-74
2021/07/01 07:56:00;;;;;;;2.20;1.60;;;24.80;46.60;;;;;;6300822;28;20109;-74
2021/07/01 07:59:01;;;;;;;2.70;1.55;;;25.00;46.40;;;;;;6298578;28;20047;-74
2021/07/01 08:02:05;;;;;;;1.65;1.27;;;25.10;46.10;;;;;;6299630;28;20327;-74
2021/07/01 08:05:07;;;;;;;3.22;1.33;;;25.30;45.90;;;;;;6309846;28;20454;-73
2021/07/01 08:08:12;;;;;;;4.15;1.75;;;25.40;45.50;;;;;;6299262;28;20044;-75
2021/07/01 08:11:14;;;;;;;1.50;1.10;;;25.50;44.90;;;;;;6299560;28;20098;-75
2021/07/01 08:14:17;;;;;;;1.30;1.00;;;25.60;44.50;;;;;;6298230;28;20067;-74
2021/07/01 08:17:19;;;;;;;5.93;1.20;;;25.70;44.20;;;;;;6298936;28;20358;-74
2021/07/01 08:20:22;;;;;;;3.15;1.27;;;25.80;44.10;;;;;;6299626;28;20124;-74
2021/07/01 08:23:24;;;;;;;1.85;1.25;;;25.80;43.90;;;;;;6297140;28;20040;-75
2021/07/01 08:26:26;;;;;;;1.67;0.90;;;25.60;43.90;;;;;;6297971;28;20044;-75
2021/07/01 08:29:29;;;;;;;1.00;0.90;;;25.50;44.00;;;;;;6257575;28;20040;-74
2021/07/01 08:32:32;;;;;;;2.17;1.20;;;25.40;44.00;;;;;;6272981;28;20040;-75
2021/07/01 08:35:34;;;;;;;1.75;1.10;;;25.50;43.50;;;;;;6298334;28;20043;-74
2021/07/01 08:38:36;;;;;;;5.50;1.20;;;25.50;43.30;;;;;;6297586;28;20107;-74
2021/07/01 08:41:42;;;;;;;1.48;0.98;;;25.70;43.10;;;;;;6291487;28;20093;-74
2021/07/01 08:44:45;;;;;;;1.00;0.82;;;25.70;42.90;;;;;;6273148;28;20041;-74
2021/07/01 08:47:52;;;;;;;2.08;1.10;;;25.80;42.70;;;;;;6273061;28;20025;-73
2021/07/01 08:50:56;;;;;;;2.70;1.17;;;26.00;42.50;;;;;;6273667;28;20064;-74
2021/07/01 08:54:13;;;;;;;5.60;1.02;;;26.20;42.20;;;;;;6272550;28;20041;-74
2021/07/01 08:57:15;;;;;;;5.70;1.00;;;26.30;42.00;;;;;;6297690;28;20135;-73
2021/07/01 09:00:17;;;;;;;0.75;0.75;;;26.40;41.70;;;;;;6297312;28;20032;-75
2021/07/01 09:03:27;;;;;;;1.27;0.90;;;26.50;41.60;;;;;;6307885;28;20364;-75
2021/07/01 09:06:38;;;;;;;1.05;0.80;;;26.70;41.60;;;;;;6313752;28;20036;-74
2021/07/01 09:09:40;;;;;;;2.38;1.00;;;26.80;41.40;;;;;;6282424;28;20044;-75
2021/07/01 09:12:51;;;;;;;2.88;0.90;;;26.90;41.20;;;;;;6296305;28;20033;-74
2021/07/01 09:15:52;;;;;;;4.15;0.82;;;27.10;41.10;;;;;;6297200;28;20135;-74
2021/07/01 09:18:56;;;;;;;1.92;1.30;;;27.10;40.90;;;;;;6294910;28;20032;-74
2021/07/01 09:22:00;;;;;;;4.07;1.15;;;27.20;41.00;;;;;;6312372;28;20033;-74
2021/07/01 09:25:04;;;;;;;3.95;0.90;;;27.30;41.00;;;;;;6295529;28;20089;-74
2021/07/01 09:28:05;;;;;;;8.35;1.33;;;27.40;40.60;;;;;;6281673;28;20112;-75
2021/07/01 09:31:07;;;;;;;3.90;1.10;;;27.60;40.50;;;;;;6270599;28;20037;-73
2021/07/01 09:34:10;;;;;;;3.17;1.02;;;27.80;40.20;;;;;;6306726;28;20047;-75
2021/07/01 09:37:13;;;;;;;3.95;1.48;;;28.00;40.00;;;;;;6320722;28;20028;-74
2021/07/01 09:40:18;;;;;;;1.67;0.95;;;28.10;39.70;;;;;;6303754;28;20181;-75
2021/07/01 09:43:22;;;;;;;5.43;2.10;;;28.40;39.50;;;;;;6303763;28;20043;-75
2021/07/01 09:46:28;;;;;;;2.33;1.00;;;28.50;39.30;;;;;;6315314;28;20406;-75
2021/07/01 09:49:33;;;;;;;1.35;0.95;;;28.60;39.20;;;;;;6295398;28;20065;-75
2021/07/01 09:52:41;;;;;;;1.88;0.88;;;28.80;38.90;;;;;;6287043;28;20041;-74
2021/07/01 09:55:44;;;;;;;6.20;1.08;;;29.00;38.60;;;;;;6270332;28;20028;-74
2021/07/01 09:58:57;;;;;;;3.22;1.10;;;29.10;38.40;;;;;;6270181;28;20044;-75
2021/07/01 10:02:25;;;;;;;3.03;0.93;;;29.20;38.00;;;;;;6271319;28;20125;-74
2021/07/01 10:05:28;;;;;;;1.42;0.93;;;29.20;37.80;;;;;;6253515;28;20108;-74
2021/07/01 10:08:39;;;;;;;1.67;0.93;;;29.20;37.70;;;;;;6282508;28;20438;-74
2021/07/01 10:11:42;;;;;;;0.75;0.70;;;29.10;37.60;;;;;;6290033;28;20349;-75
2021/07/01 10:14:44;;;;;;;0.88;0.75;;;29.00;37.20;;;;;;6304412;28;20036;-74
2021/07/01 10:18:01;;;;;;;2.78;0.90;;;28.90;37.20;;;;;;6287684;28;20055;-74
2021/07/01 10:21:14;;;;;;;1.13;1.02;;;28.90;37.30;;;;;;6294440;28;20050;-73
2021/07/01 10:24:19;;;;;;;1.35;0.98;;;29.00;36.80;;;;;;6296222;28;20032;-74
2021/07/01 10:27:41;;;;;;;1.05;0.80;;;29.10;36.10;;;;;;6293340;28;20032;-74
2021/07/01 10:30:54;;;;;;;0.93;0.88;;;29.10;35.90;;;;;;6297362;28;20123;-75
2021/07/01 10:33:58;;;;;;;3.28;0.98;;;29.10;35.50;;;;;;6262591;28;24668;-74
2021/07/01 10:37:21;;;;;;;3.00;1.15;;;29.00;35.50;;;;;;6287323;28;20037;-76
2021/07/01 10:40:22;;;;;;;1.40;1.00;;;28.90;35.70;;;;;;6249910;28;20120;-75
2021/07/01 10:43:42;;;;;;;0.70;0.60;;;28.90;35.90;;;;;;6254151;28;20041;-75
2021/07/01 10:46:45;;;;;;;1.30;0.90;;;28.90;35.60;;;;;;6269238;28;20047;-74
2021/07/01 10:49:46;;;;;;;1.60;1.30;;;29.00;35.10;;;;;;6271190;28;20125;-74
2021/07/01 10:52:48;;;;;;;2.30;1.17;;;29.00;34.80;;;;;;6296606;28;20044;-74
2021/07/01 10:55:50;;;;;;;2.28;0.80;;;29.00;34.70;;;;;;6315797;28;20108;-74
2021/07/01 10:58:57;;;;;;;0.68;0.60;;;29.20;34.80;;;;;;6315091;28;20093;-74
2021/07/01 11:02:05;;;;;;;2.85;1.13;;;29.30;34.50;;;;;;6279130;28;20035;-74
2021/07/01 11:05:07;;;;;;;1.02;0.80;;;29.60;34.10;;;;;;6273519;28;20033;-75
2021/07/01 11:08:08;;;;;;;2.75;1.10;;;29.80;33.10;;;;;;6275501;28;20040;-74
2021/07/01 11:11:20;;;;;;;3.58;0.95;;;30.40;32.10;;;;;;6296488;28;20054;-75
2021/07/01 11:14:21;;;;;;;1.98;1.10;;;31.90;30.40;;;;;;6266146;28;20052;-73
2021/07/01 11:17:40;;;;;;;4.63;0.80;;;32.80;29.00;;;;;;6284025;28;20125;-75
2021/07/01 11:20:41;;;;;;;1.48;0.80;;;33.40;28.50;;;;;;6305548;28;20094;-74
2021/07/01 11:23:46;;;;;;;0.52;0.52;;;34.10;27.70;;;;;;6300426;28;20423;-74
2021/07/01 11:26:50;;;;;;;1.58;1.00;;;34.90;27.00;;;;;;6301007;28;20028;-74
2021/07/01 11:29:51;;;;;;;2.53;1.17;;;35.30;27.10;;;;;;6282984;28;20045;-75
2021/07/01 11:33:28;;;;;;;2.05;0.98;;;35.70;26.20;;;;;;6307965;28;20036;-75
2021/07/01 11:36:30;;;;;;;2.78;0.82;;;35.80;25.60;;;;;;6180667;28;20124;-74
2021/07/01 11:39:33;;;;;;;8.18;0.88;;;36.20;25.10;;;;;;6183789;28;20039;-74
2021/07/01 11:42:35;;;;;;;1.02;0.70;;;36.70;25.40;;;;;;6182439;28;20337;-74
2021/07/01 11:45:36;;;;;;;1.80;1.00;;;36.80;24.20;;;;;;6165489;28;20356;-74
2021/07/01 11:48:38;;;;;;;1.20;0.88;;;36.70;23.90;;;;;;6204272;28;20451;-76
2021/07/01 11:51:40;;;;;;;1.75;0.85;;;36.80;24.20;;;;;;6233050;28;20353;-74
2021/07/01 11:54:42;;;;;;;1.05;0.95;;;37.00;24.00;;;;;;6203889;28;20049;-74
2021/07/01 11:57:44;;;;;;;1.00;0.73;;;37.30;23.90;;;;;;6220989;28;20034;-75
2021/07/01 12:00:46;;;;;;;2.78;0.80;;;37.60;23.70;;;;;;6219660;28;20034;-74
2021/07/01 12:03:51;;;;;;;2.03;0.52;;;37.80;23.50;;;;;;6232561;28;20466;-76
2021/07/01 12:07:12;;;;;;;0.95;0.82;;;38.10;23.30;;;;;;6218887;28;20328;-74
2021/07/01 12:10:20;;;;;;;0.82;0.65;;;38.20;23.20;;;;;;6263650;28;20156;-75
2021/07/01 12:13:33;;;;;;;;;;;38.30;22.90;;;;;;6273337;28;20374;-74
2021/07/01 12:16:41;;;;;;;0.70;0.65;;;38.50;22.60;;;;;;6292278;28;19923;-75
2021/07/01 12:19:48;;;;;;;0.93;0.60;;;38.60;22.70;;;;;;6294354;28;20449;-75
2021/07/01 12:22:50;;;;;;;0.98;0.68;;;38.70;22.90;;;;;;6281853;28;20031;-74
2021/07/01 12:25:57;;;;;;;1.45;0.65;;;38.90;22.90;;;;;;6294544;28;20035;-75
2021/07/01 12:28:59;;;;;;;0.68;0.60;;;39.00;22.60;;;;;;6293455;28;20029;-76
2021/07/01 12:32:25;;;;;;;2.35;0.93;;;39.10;22.20;;;;;;6297492;28;20031;-74
2021/07/01 12:35:39;;;;;;;3.88;0.70;;;39.30;22.20;;;;;;6255233;28;20098;-76
2021/07/01 12:39:02;;;;;;;2.38;0.45;;;39.30;21.70;;;;;;6281086;28;20029;-75
2021/07/01 12:42:04;;;;;;;0.60;0.60;;;39.30;21.40;;;;;;6293184;28;20036;-74
2021/07/01 12:45:06;;;;;;;2.35;0.60;;;39.20;21.10;;;;;;6293757;28;20075;-75
2021/07/01 12:48:40;;;;;;;0.60;0.60;;;39.10;20.90;;;;;;6275228;28;20040;-74
2021/07/01 12:51:53;;;;;;;6.90;1.00;;;39.20;20.90;;;;;;6223797;28;20607;-75
2021/07/01 12:54:56;;;;;;;0.90;0.60;;;39.30;20.80;;;;;;6224953;28;20050;-74
2021/07/01 12:57:57;;;;;;;0.75;0.60;;;39.60;20.60;;;;;;6209948;28;20041;-75
2021/07/01 13:00:59;;;;;;;0.93;0.60;;;39.80;20.50;;;;;;6205369;28;20077;-75
2021/07/01 13:04:00;;;;;;;2.05;0.75;;;40.20;20.30;;;;;;6232781;28;20163;-75
2021/07/01 13:07:03;;;;;;;0.70;0.70;;;40.40;19.70;;;;;;6225351;28;20355;-76
2021/07/01 13:10:11;;;;;;;1.15;0.80;;;40.70;19.30;;;;;;6226117;28;20522;-75
2021/07/01 13:13:12;;;;;;;0.60;0.60;;;40.90;19.30;;;;;;6222394;28;20374;-75
2021/07/01 13:16:13;;;;;;;0.50;0.50;;;41.30;19.20;;;;;;6225962;28;20051;-74
2021/07/01 13:19:19;;;;;;;2.10;0.75;;;41.60;18.70;;;;;;6218786;28;20041;-75
2021/07/01 13:22:34;;;;;;;1.13;0.70;;;41.60;18.40;;;;;;6229940;28;20053;-74
2021/07/01 13:25:35;;;;;;;0.50;0.50;;;41.60;18.30;;;;;;6202465;28;20041;-74
2021/07/01 13:28:38;;;;;;;3.78;0.77;;;41.80;18.20;;;;;;6280942;28;20059;-75
2021/07/01 13:31:39;;;;;;;0.60;0.60;;;41.90;17.90;;;;;;6293178;28;20040;-74
2021/07/01 13:34:40;;;;;;;0.88;0.68;;;42.00;18.10;;;;;;6307273;28;20028;-74
2021/07/01 13:37:41;;;;;;;1.85;0.52;;;42.30;18.00;;;;;;6292307;28;20043;-74
2021/07/01 13:40:45;;;;;;;3.13;1.10;;;42.80;17.60;;;;;;6306071;28;20051;-74
2021/07/01 13:43:46;;;;;;;1.15;0.90;;;43.20;17.30;;;;;;6273230;28;20323;-75
2021/07/01 13:46:48;;;;;;;1.35;0.50;;;43.40;17.00;;;;;;6292480;28;20032;-74
2021/07/01 13:49:50;;;;;;;0.50;0.50;;;43.90;16.90;;;;;;6286080;28;20044;-74
2021/07/01 13:52:55;;;;;;;1.00;0.80;;;44.00;16.40;;;;;;6274460;28;20040;-74
2021/07/01 13:56:01;;;;;;;0.73;0.57;;;44.10;16.30;;;;;;6294374;28;20098;-74
2021/07/01 13:59:09;;;;;;;0.75;0.70;;;44.00;16.00;;;;;;6294056;28;20032;-74
2021/07/01 14:02:20;;;;;;;3.40;0.80;;;44.10;16.00;;;;;;6292718;28;20028;-74
2021/07/01 14:05:29;;;;;;;1.65;0.80;;;44.10;15.60;;;;;;6318945;28;20039;-74
2021/07/01 14:08:48;;;;;;;5.07;0.60;;;44.30;15.60;;;;;;6319989;28;20521;-75
2021/07/01 14:11:49;;;;;;;0.50;0.45;;;44.20;15.50;;;;;;6265147;28;20048;-74
2021/07/01 14:14:50;;;;;;;0.50;0.50;;;44.50;15.60;;;;;;6284603;28;20041;-75
2021/07/01 14:17:54;;;;;;;1.63;0.80;;;44.80;15.50;;;;;;6286507;28;20438;-74
2021/07/01 14:20:56;;;;;;;0.77;0.70;;;45.10;15.40;;;;;;6298773;28;20174;-75
2021/07/01 14:24:12;;;;;;;0.68;0.60;;;45.30;15.20;;;;;;6292636;28;20112;-75
2021/07/01 14:27:13;;;;;;;0.68;0.60;;;45.50;15.00;;;;;;6310167;28;20041;-75
2021/07/01 14:30:37;;;;;;;0.80;0.60;;;45.80;14.70;;;;;;6292897;28;20123;-74
2021/07/01 14:33:46;;;;;;;0.80;0.80;;;45.80;14.80;;;;;;6287101;28;20039;-74
2021/07/01 14:36:50;;;;;;;1.02;0.93;;;45.90;14.60;;;;;;6316343;28;20471;-74
2021/07/01 14:40:05;;;;;;;4.15;1.23;;;45.90;14.80;;;;;;6316220;28;20035;-74
2021/07/01 14:43:06;;;;;;;0.57;0.52;;;46.20;14.70;;;;;;6311814;28;20456;-73
2021/07/01 14:46:16;;;;;;;1.40;1.00;;;46.50;14.50;;;;;;6282866;28;20183;-74
2021/07/01 14:49:34;;;;;;;0.77;0.75;;;46.40;14.50;;;;;;6265340;28;20128;-74
2021/07/01 14:52:35;;;;;;;1.90;0.80;;;46.30;14.60;;;;;;6266654;28;20111;-74
2021/07/01 14:55:37;;;;;;;2.70;0.57;;;46.30;14.60;;;;;;6266910;28;20039;-74
2021/07/01 14:58:50;;;;;;;1.40;0.90;;;46.00;14.60;;;;;;6265984;28;20061;-75
2021/07/01 15:01:57;;;;;;;1.17;0.57;;;45.60;14.90;;;;;;6271183;28;20064;-75
2021/07/01 15:05:10;;;;;;;4.27;0.90;;;45.30;14.90;;;;;;6294365;28;20453;-74
2021/07/01 15:08:12;;;;;;;1.70;0.85;;;45.00;15.00;;;;;;6272081;28;20032;-75
2021/07/01 15:11:21;;;;;;;0.70;0.70;;;44.70;14.90;;;;;;6291796;28;20113;-74
2021/07/01 15:14:23;;;;;;;5.88;0.68;;;44.50;15.00;;;;;;6286075;28;20060;-74
2021/07/01 15:17:34;;;;;;;0.93;0.82;;;44.30;15.10;;;;;;6292997;28;20461;-75
2021/07/01 15:20:38;;;;;;;4.40;0.88;;;44.50;15.20;;;;;;6297514;28;20040;-75
2021/07/01 15:23:56;;;;;;;0.50;0.47;;;44.50;15.00;;;;;;6296919;28;20067;-75
2021/07/01 15:26:57;;;;;;;1.33;0.80;;;44.30;15.00;;;;;;6273069;28;20481;-75
2021/07/01 15:29:59;;;;;;;9.70;0.70;;;44.00;15.20;;;;;;6298437;28;20036;-75
2021/07/01 15:33:00;;;;;;;0.82;0.63;;;43.70;15.30;;;;;;6306483;28;20394;-75
2021/07/01 15:36:02;;;;;;;0.60;0.50;;;43.30;15.50;;;;;;6323386;28;20442;-74
2021/07/01 15:39:03;;;;;;;0.85;0.82;;;43.00;15.80;;;;;;6320268;28;20038;-74
2021/07/01 15:42:10;;;;;;;0.75;0.60;;;42.60;16.10;;;;;;6321340;28;20036;-74
2021/07/01 15:45:14;;;;;;;0.43;0.43;;;42.40;16.30;;;;;;6286186;28;20032;-75
2021/07/01 15:48:16;;;;;;;1.17;0.85;;;42.40;16.40;;;;;;6312879;28;20036;-75
2021/07/01 15:51:17;;;;;;;0.63;0.63;;;42.10;16.60;;;;;;6294568;28;20365;-76
2021/07/01 15:54:18;;;;;;;0.60;0.60;;;41.40;17.20;;;;;;6296989;28;20032;-74
2021/07/01 15:57:20;;;;;;;2.58;0.70;;;40.80;17.60;;;;;;6297563;28;20517;-73
2021/07/01 16:00:21;;;;;;;1.17;0.43;;;39.90;18.20;;;;;;6295833;28;20406;-76
2021/07/01 16:03:24;;;;;;;1.27;0.60;;;38.90;18.70;;;;;;6295959;28;20582;-74
2021/07/01 16:06:26;;;;;;;0.95;0.73;;;38.30;19.20;;;;;;6312165;28;20029;-74
2021/07/01 16:09:27;;;;;;;1.73;1.30;;;37.90;19.50;;;;;;6294756;28;20040;-74
2021/07/01 16:12:30;;;;;;;1.25;0.70;;;37.70;19.70;;;;;;6262556;28;20044;-74
2021/07/01 16:15:31;;;;;;;0.70;0.70;;;38.10;19.60;;;;;;6231571;28;20030;-75